Time,TemperatureF,DewpointF,PressureIn,WindDirection,WindDirectionDegrees,WindSpeedMPH,WindSpeedGustMPH,Humidity,HourlyPrecipIn,Conditions,Clouds,dailyrainin,SoftwareType,DateUTC
2013-01-28 00:00:00,72.4,64.3,30.28,NNW,347,3.0,7.8,76,0.00,,---,0.00,VWS V13.01,2013-01-28 05:00:00,
2013-01-28 00:01:00,72.5,64.4,30.28,NE,42,4.3,8.6,76,0.00,,---,0.00,VWS V13.01,2013-01-28 05:01:00,
2013-01-28 00:04:00,72.4,64.4,30.28,ENE,63,8.6,10.8,76,0.00,,---,0.00,VWS V13.01,2013-01-28 05:04:00,
2013-01-28 00:09:00,72.4,64.1,30.28,NNE,24,5.4,7.4,75,0.00,,---,0.00,VWS V13.01,2013-01-28 05:09:00,
2013-01-28 00:14:00,72.3,64.0,30.27,NE,41,6.0,6.0,75,0.00,,---,0.00,VWS V13.01,2013-01-28 05:14:00,
2013-01-28 00:19:00,72.3,64.0,30.27,NE,41,11.9,11.9,75,0.00,,---,0.00,VWS V13.01,2013-01-28 05:19:00,
2013-01-28 00:24:00,72.2,63.8,30.27,ENE,66,7.8,8.0,75,0.00,,---,0.00,VWS V13.01,2013-01-28 05:24:00,
2013-01-28 00:29:00,72.2,63.8,30.27,NE,38,5.3,8.0,75,0.00,,---,0.00,VWS V13.01,2013-01-28 05:29:00,
2013-01-28 00:34:00,72.3,63.9,30.27,NE,42,5.8,8.5,75,0.00,,---,0.00,VWS V13.01,2013-01-28 05:34:00,
2013-01-28 00:39:00,72.5,64.3,30.27,ENE,59,6.6,7.3,75,0.00,,---,0.00,VWS V13.01,2013-01-28 05:39:00,
2013-01-28 00:44:00,72.4,64.6,30.27,NE,46,8.0,9.9,76,0.00,,---,0.00,VWS V13.01,2013-01-28 05:44:00,
2013-01-28 00:49:00,72.4,64.8,30.27,NE,42,8.9,10.6,77,0.00,,---,0.00,VWS V13.01,2013-01-28 05:49:00,
2013-01-28 00:54:00,72.7,64.7,30.27,NE,35,8.7,8.9,76,0.00,,---,0.00,VWS V13.01,2013-01-28 05:54:00,
2013-01-28 00:59:00,72.4,64.3,30.27,NNE,32,4.2,11.5,76,0.00,,---,0.00,VWS V13.01,2013-01-28 05:59:00,
2013-01-28 01:04:00,72.7,64.4,30.27,NNE,32,5.6,7.1,75,0.00,,---,0.00,VWS V13.01,2013-01-28 06:04:00,
2013-01-28 01:09:00,72.5,64.2,30.27,NE,46,11.6,13.2,75,0.00,,---,0.00,VWS V13.01,2013-01-28 06:09:00,
2013-01-28 01:14:00,72.8,64.4,30.27,NNE,31,6.4,9.0,75,0.00,,---,0.00,VWS V13.01,2013-01-28 06:14:00,
2013-01-28 01:19:00,72.9,64.6,30.27,ENE,59,4.0,6.9,75,0.00,,---,0.00,VWS V13.01,2013-01-28 06:19:00,
2013-01-28 01:24:00,72.9,64.6,30.27,NE,52,4.9,9.3,75,0.00,,---,0.00,VWS V13.01,2013-01-28 06:24:00,
2013-01-28 01:29:00,73.0,64.7,30.27,NE,51,8.0,8.0,75,0.00,,---,0.00,VWS V13.01,2013-01-28 06:29:00,
2013-01-28 01:34:00,72.8,64.3,30.27,East,79,5.4,14.2,75,0.00,,---,0.00,VWS V13.01,2013-01-28 06:34:00,
2013-01-28 01:39:00,73.0,64.5,30.27,NE,56,6.8,8.9,75,0.00,,---,0.00,VWS V13.01,2013-01-28 06:39:00,
2013-01-28 01:44:00,72.8,63.9,30.26,NNE,15,7.3,7.3,74,0.00,,---,0.00,VWS V13.01,2013-01-28 06:44:00,
2013-01-28 01:49:00,72.7,63.7,30.26,NNE,18,6.8,11.9,73,0.00,,---,0.00,VWS V13.01,2013-01-28 06:49:00,
2013-01-28 01:54:00,72.6,63.8,30.26,East,96,7.6,13.9,74,0.00,,---,0.00,VWS V13.01,2013-01-28 06:54:00,
2013-01-28 01:59:00,72.9,64.3,30.26,ENE,63,4.0,7.5,74,0.00,,---,0.00,VWS V13.01,2013-01-28 06:59:00,
2013-01-28 02:04:00,72.9,63.9,30.26,NNE,13,7.8,8.9,74,0.00,,---,0.00,VWS V13.01,2013-01-28 07:04:00,
2013-01-28 02:09:00,72.6,63.7,30.26,NE,55,7.2,14.5,74,0.00,,---,0.00,VWS V13.01,2013-01-28 07:09:00,
2013-01-28 02:14:00,72.8,63.9,30.26,NE,49,6.5,6.5,74,0.00,,---,0.00,VWS V13.01,2013-01-28 07:14:00,
2013-01-28 02:19:00,72.7,63.9,30.26,NE,45,13.3,13.3,74,0.00,,---,0.00,VWS V13.01,2013-01-28 07:19:00,
2013-01-28 02:24:00,72.9,64.2,30.26,NE,34,11.6,15.6,74,0.00,,---,0.00,VWS V13.01,2013-01-28 07:24:00,
2013-01-28 02:29:00,72.9,64.1,30.26,ENE,68,8.9,9.3,74,0.00,,---,0.00,VWS V13.01,2013-01-28 07:29:00,
2013-01-28 02:34:00,72.8,63.8,30.26,NE,46,4.8,5.3,73,0.00,,---,0.00,VWS V13.01,2013-01-28 07:34:00,
2013-01-28 02:39:00,72.6,63.7,30.26,NE,51,8.3,9.4,74,0.00,,---,0.00,VWS V13.01,2013-01-28 07:39:00,
2013-01-28 02:44:00,72.8,63.6,30.26,ESE,108,4.2,6.3,73,0.00,,---,0.00,VWS V13.01,2013-01-28 07:44:00,
2013-01-28 02:49:00,72.7,63.5,30.26,NE,56,5.0,10.7,73,0.00,,---,0.00,VWS V13.01,2013-01-28 07:49:00,
2013-01-28 02:54:00,72.5,63.2,30.26,NE,51,6.7,9.6,72,0.00,,---,0.00,VWS V13.01,2013-01-28 07:54:00,
2013-01-28 02:59:00,72.8,63.5,30.26,NE,34,6.5,11.2,73,0.00,,---,0.00,VWS V13.01,2013-01-28 07:59:00,
2013-01-28 03:04:00,72.6,63.1,30.26,NNE,20,6.5,13.9,72,0.00,,---,0.00,VWS V13.01,2013-01-28 08:04:00,
2013-01-28 03:09:00,72.7,63.1,30.26,NNE,31,4.2,10.6,72,0.00,,---,0.00,VWS V13.01,2013-01-28 08:09:00,
2013-01-28 03:14:00,72.8,63.5,30.26,ENE,70,3.8,6.7,72,0.00,,---,0.00,VWS V13.01,2013-01-28 08:14:00,
2013-01-28 03:19:00,72.7,63.5,30.26,ENE,76,5.6,8.6,73,0.00,,---,0.00,VWS V13.01,2013-01-28 08:19:00,
2013-01-28 03:25:00,72.7,63.6,30.26,NE,56,2.1,4.8,73,0.00,,---,0.00,VWS V13.01,2013-01-28 08:25:00,
2013-01-28 03:30:00,72.8,63.7,30.26,ENE,70,4.2,6.3,73,0.00,,---,0.00,VWS V13.01,2013-01-28 08:30:00,
2013-01-28 03:35:00,72.5,63.4,30.26,NE,55,5.7,10.7,73,0.00,,---,0.00,VWS V13.01,2013-01-28 08:35:00,
2013-01-28 03:40:00,72.8,63.7,30.26,NE,53,5.8,7.6,73,0.00,,---,0.00,VWS V13.01,2013-01-28 08:40:00,
2013-01-28 03:45:00,72.8,63.5,30.26,ENE,72,5.8,5.8,73,0.00,,---,0.00,VWS V13.01,2013-01-28 08:45:00,
2013-01-28 03:50:00,72.6,63.0,30.26,NNE,27,7.1,7.1,72,0.00,,---,0.00,VWS V13.01,2013-01-28 08:50:00,
2013-01-28 03:55:00,72.7,63.1,30.26,NE,42,5.2,6.5,72,0.00,,---,0.00,VWS V13.01,2013-01-28 08:55:00,
2013-01-28 04:00:00,72.7,62.8,30.26,ENE,70,5.3,6.3,71,0.00,,---,0.00,VWS V13.01,2013-01-28 09:00:00,
2013-01-28 04:05:00,72.8,62.9,30.26,ENE,58,8.2,9.3,71,0.00,,---,0.00,VWS V13.01,2013-01-28 09:05:00,
2013-01-28 04:10:00,72.6,62.9,30.26,NNE,32,4.2,5.1,72,0.00,,---,0.00,VWS V13.01,2013-01-28 09:10:00,
2013-01-28 04:15:00,72.7,62.6,30.26,NE,46,6.5,7.2,71,0.00,,---,0.00,VWS V13.01,2013-01-28 09:15:00,
2013-01-28 04:20:00,72.8,62.5,30.25,ENE,59,4.8,6.1,70,0.00,,---,0.00,VWS V13.01,2013-01-28 09:20:00,
2013-01-28 04:25:00,72.5,61.9,30.25,NE,38,7.6,11.0,69,0.00,,---,0.00,VWS V13.01,2013-01-28 09:25:00,
2013-01-28 04:30:00,72.9,62.2,30.25,NNE,15,5.9,6.2,69,0.00,,---,0.00,VWS V13.01,2013-01-28 09:30:00,
2013-01-28 04:35:00,72.7,62.0,30.26,NE,51,8.0,12.9,69,0.00,,---,0.00,VWS V13.01,2013-01-28 09:35:00,
2013-01-28 04:40:00,72.9,62.1,30.25,NE,37,6.6,7.4,69,0.00,,---,0.00,VWS V13.01,2013-01-28 09:40:00,
2013-01-28 04:45:00,72.9,62.1,30.26,East,79,4.3,9.5,69,0.00,,---,0.00,VWS V13.01,2013-01-28 09:45:00,
2013-01-28 04:50:00,72.8,62.1,30.26,NE,42,6.5,7.5,69,0.00,,---,0.00,VWS V13.01,2013-01-28 09:50:00,
2013-01-28 04:55:00,72.8,61.8,30.26,NE,53,8.4,8.5,68,0.00,,---,0.00,VWS V13.01,2013-01-28 09:55:00,
2013-01-28 05:00:00,73.2,61.8,30.26,NE,52,6.0,8.6,67,0.00,,---,0.00,VWS V13.01,2013-01-28 10:00:00,
2013-01-28 05:05:00,73.2,62.1,30.26,ENE,69,4.7,4.8,68,0.00,,---,0.00,VWS V13.01,2013-01-28 10:05:00,
2013-01-28 05:11:00,73.0,62.2,30.26,NNE,31,3.9,8.3,69,0.00,,---,0.00,VWS V13.01,2013-01-28 10:11:00,
2013-01-28 05:16:00,72.9,62.2,30.26,NE,42,4.1,4.3,69,0.00,,---,0.00,VWS V13.01,2013-01-28 10:16:00,
2013-01-28 05:21:00,72.8,62.1,30.26,ENE,62,4.2,4.3,69,0.00,,---,0.00,VWS V13.01,2013-01-28 10:21:00,
2013-01-28 05:26:00,72.7,62.2,30.26,NE,51,4.5,8.3,70,0.00,,---,0.00,VWS V13.01,2013-01-28 10:26:00,
2013-01-28 05:31:00,72.8,62.5,30.26,ENE,62,2.8,3.8,70,0.00,,---,0.00,VWS V13.01,2013-01-28 10:31:00,
2013-01-28 05:36:00,72.9,62.4,30.26,ENE,62,4.5,5.0,70,0.00,,---,0.00,VWS V13.01,2013-01-28 10:36:00,
2013-01-28 05:41:00,72.7,62.1,30.26,NE,53,4.7,4.7,69,0.00,,---,0.00,VWS V13.01,2013-01-28 10:41:00,
2013-01-28 05:46:00,72.8,62.7,30.26,NNE,25,4.0,4.5,70,0.00,,---,0.00,VWS V13.01,2013-01-28 10:46:00,
2013-01-28 05:51:00,72.7,62.7,30.26,NE,46,7.3,8.3,71,0.00,,---,0.00,VWS V13.01,2013-01-28 10:51:00,
2013-01-28 05:56:00,72.6,62.4,30.26,NNE,28,5.7,7.3,70,0.00,,---,0.00,VWS V13.01,2013-01-28 10:56:00,
2013-01-28 06:01:00,72.7,62.7,30.26,NE,38,3.9,6.8,71,0.00,,---,0.00,VWS V13.01,2013-01-28 11:01:00,
2013-01-28 06:06:00,72.9,63.3,30.26,NNE,20,5.2,8.3,72,0.00,,---,0.00,VWS V13.01,2013-01-28 11:06:00,
2013-01-28 06:11:00,72.7,63.0,30.26,NE,45,5.0,6.0,72,0.00,,---,0.00,VWS V13.01,2013-01-28 11:11:00,
2013-01-28 06:16:00,72.8,63.3,30.27,NE,48,4.8,5.8,72,0.00,,---,0.00,VWS V13.01,2013-01-28 11:16:00,
2013-01-28 06:21:00,72.8,63.4,30.27,ENE,62,2.8,7.0,72,0.00,,---,0.00,VWS V13.01,2013-01-28 11:21:00,
2013-01-28 06:26:00,72.8,63.4,30.27,NE,41,7.0,9.3,72,0.00,,---,0.00,VWS V13.01,2013-01-28 11:26:00,
2013-01-28 06:31:00,72.7,62.8,30.28,ENE,69,4.3,10.9,71,0.00,,---,0.00,VWS V13.01,2013-01-28 11:31:00,
2013-01-28 06:36:00,72.7,62.7,30.28,NE,55,4.6,8.0,71,0.00,,---,0.00,VWS V13.01,2013-01-28 11:36:00,
2013-01-28 06:41:00,72.8,62.6,30.28,NNE,28,5.2,8.6,70,0.00,,---,0.00,VWS V13.01,2013-01-28 11:41:00,
2013-01-28 06:46:00,72.7,62.9,30.28,East,84,2.5,6.2,71,0.00,,---,0.00,VWS V13.01,2013-01-28 11:46:00,
2013-01-28 06:51:00,72.7,63.2,30.28,NE,46,3.2,5.6,72,0.00,,---,0.00,VWS V13.01,2013-01-28 11:51:00,
2013-01-28 06:56:00,72.5,62.9,30.28,NE,34,8.1,8.1,72,0.00,,---,0.00,VWS V13.01,2013-01-28 11:56:00,
2013-01-28 07:01:00,72.6,63.1,30.28,NE,51,5.2,7.8,72,0.00,,---,0.00,VWS V13.01,2013-01-28 12:01:00,
2013-01-28 07:06:00,72.7,63.2,30.28,East,79,5.7,6.6,72,0.00,,---,0.00,VWS V13.01,2013-01-28 12:06:00,
2013-01-28 07:11:00,72.7,63.2,30.28,ENE,58,5.1,9.1,72,0.00,,---,0.00,VWS V13.01,2013-01-28 12:11:00,
2013-01-28 07:16:00,72.7,63.1,30.28,East,80,3.0,7.5,72,0.00,,---,0.00,VWS V13.01,2013-01-28 12:16:00,
2013-01-28 07:21:00,72.7,63.2,30.28,ENE,60,6.0,8.6,72,0.00,,---,0.00,VWS V13.01,2013-01-28 12:21:00,
2013-01-28 07:26:00,72.8,63.4,30.29,NE,51,4.6,8.4,72,0.00,,---,0.00,VWS V13.01,2013-01-28 12:26:00,
2013-01-28 07:31:00,73.1,63.8,30.29,ENE,58,5.3,9.3,73,0.00,,---,0.00,VWS V13.01,2013-01-28 12:31:00,
2013-01-28 07:36:00,73.1,63.8,30.29,ENE,66,3.9,6.8,73,0.00,,---,0.00,VWS V13.01,2013-01-28 12:36:00,
2013-01-28 07:42:00,73.2,63.5,30.29,NE,56,5.4,7.6,72,0.00,,---,0.00,VWS V13.01,2013-01-28 12:42:00,
2013-01-28 07:47:00,73.3,63.8,30.29,NE,55,6.1,6.1,72,0.00,,---,0.00,VWS V13.01,2013-01-28 12:47:00,
2013-01-28 07:52:00,73.3,63.8,30.29,NE,39,3.2,6.8,72,0.00,,---,0.00,VWS V13.01,2013-01-28 12:52:00,
2013-01-28 07:57:00,73.4,64.1,30.29,ENE,76,5.3,9.8,73,0.00,,---,0.00,VWS V13.01,2013-01-28 12:57:00,
2013-01-28 08:02:00,73.4,64.3,30.29,NNE,24,4.2,6.7,73,0.00,,---,0.00,VWS V13.01,2013-01-28 13:02:00,
2013-01-28 08:07:00,73.4,63.6,30.29,NNE,15,3.4,6.1,71,0.00,,---,0.00,VWS V13.01,2013-01-28 13:07:00,
2013-01-28 08:12:00,73.4,63.8,30.29,ENE,59,3.8,5.3,72,0.00,,---,0.00,VWS V13.01,2013-01-28 13:12:00,
2013-01-28 08:17:00,73.8,64.3,30.30,NE,56,3.5,3.5,72,0.00,,---,0.00,VWS V13.01,2013-01-28 13:17:00,
2013-01-28 08:22:00,73.8,63.9,30.30,NE,49,10.1,10.1,71,0.00,,---,0.00,VWS V13.01,2013-01-28 13:22:00,
2013-01-28 08:27:00,74.1,63.4,30.30,ENE,66,7.3,10.3,69,0.00,,---,0.00,VWS V13.01,2013-01-28 13:27:00,
2013-01-28 08:32:00,74.1,63.1,30.30,NE,34,11.0,11.0,69,0.00,,---,0.00,VWS V13.01,2013-01-28 13:32:00,
2013-01-28 08:37:00,74.2,62.9,30.30,NE,46,4.7,11.6,68,0.00,,---,0.00,VWS V13.01,2013-01-28 13:37:00,
2013-01-28 08:42:00,74.4,63.6,30.30,ENE,58,7.6,8.6,69,0.00,,---,0.00,VWS V13.01,2013-01-28 13:42:00,
2013-01-28 08:47:00,74.6,64.0,30.30,NE,45,5.7,7.9,70,0.00,,---,0.00,VWS V13.01,2013-01-28 13:47:00,
2013-01-28 08:52:00,74.6,63.3,30.30,NE,41,7.5,8.5,68,0.00,,---,0.00,VWS V13.01,2013-01-28 13:52:00,
2013-01-28 08:57:00,74.7,63.1,30.31,NNE,20,6.5,8.0,67,0.00,,---,0.00,VWS V13.01,2013-01-28 13:57:00,
2013-01-28 09:02:00,74.8,62.7,30.31,ENE,62,10.4,10.4,66,0.00,,---,0.00,VWS V13.01,2013-01-28 14:02:00,
2013-01-28 09:07:00,75.1,63.2,30.31,NE,46,3.7,7.8,67,0.00,,---,0.00,VWS V13.01,2013-01-28 14:07:00,
2013-01-28 09:12:00,75.4,63.0,30.31,ENE,77,4.3,8.0,65,0.00,,---,0.00,VWS V13.01,2013-01-28 14:12:00,
2013-01-28 09:17:00,75.5,62.8,30.31,ENE,59,9.5,11.8,65,0.00,,---,0.00,VWS V13.01,2013-01-28 14:17:00,
2013-01-28 09:22:00,75.6,63.0,30.31,NE,53,8.3,10.9,65,0.00,,---,0.00,VWS V13.01,2013-01-28 14:22:00,
2013-01-28 09:27:00,75.9,63.3,30.31,NNE,30,5.2,10.6,65,0.00,,---,0.00,VWS V13.01,2013-01-28 14:27:00,
2013-01-28 09:32:00,75.9,63.7,30.31,ENE,70,3.9,9.4,66,0.00,,---,0.00,VWS V13.01,2013-01-28 14:32:00,
2013-01-28 09:37:00,76.1,63.8,30.32,NE,56,3.9,5.5,66,0.00,,---,0.00,VWS V13.01,2013-01-28 14:37:00,
2013-01-28 09:42:00,76.3,63.8,30.32,NE,39,4.0,14.4,65,0.00,,---,0.00,VWS V13.01,2013-01-28 14:42:00,
2013-01-28 09:48:00,76.2,63.0,30.32,NE,46,3.7,9.7,64,0.00,,---,0.00,VWS V13.01,2013-01-28 14:48:00,
2013-01-28 09:53:00,76.5,63.0,30.32,NE,38,3.1,5.2,63,0.00,,---,0.00,VWS V13.01,2013-01-28 14:53:00,
2013-01-28 09:58:00,76.8,63.1,30.33,East,79,6.6,8.8,63,0.00,,---,0.00,VWS V13.01,2013-01-28 14:58:00,
2013-01-28 10:03:00,76.9,63.8,30.33,NE,53,4.7,7.5,64,0.00,,---,0.00,VWS V13.01,2013-01-28 15:03:00,
2013-01-28 10:08:00,77.1,63.9,30.33,ENE,65,3.9,6.3,64,0.00,,---,0.00,VWS V13.01,2013-01-28 15:08:00,
2013-01-28 10:13:00,77.5,63.7,30.33,NE,55,2.8,4.2,62,0.00,,---,0.00,VWS V13.01,2013-01-28 15:13:00,
2013-01-28 10:18:00,77.4,63.3,30.33,NE,55,5.7,7.8,62,0.00,,---,0.00,VWS V13.01,2013-01-28 15:18:00,
2013-01-28 10:23:00,77.4,64.0,30.33,ENE,68,2.0,3.8,63,0.00,,---,0.00,VWS V13.01,2013-01-28 15:23:00,
2013-01-28 10:28:00,77.0,63.1,30.33,NE,55,6.1,8.4,62,0.00,,---,0.00,VWS V13.01,2013-01-28 15:28:00,
2013-01-28 10:33:00,77.1,63.2,30.33,NE,49,7.0,7.0,62,0.00,,---,0.00,VWS V13.01,2013-01-28 15:33:00,
2013-01-28 10:38:00,77.3,63.4,30.33,East,94,9.4,10.4,62,0.00,,---,0.00,VWS V13.01,2013-01-28 15:38:00,
2013-01-28 10:43:00,77.1,63.5,30.33,ENE,76,6.6,11.5,63,0.00,,---,0.00,VWS V13.01,2013-01-28 15:43:00,
2013-01-28 10:48:00,77.4,64.2,30.32,ENE,70,2.7,6.0,64,0.00,,---,0.00,VWS V13.01,2013-01-28 15:48:00,
2013-01-28 10:53:00,77.5,63.3,30.32,ESE,108,3.9,11.4,62,0.00,,---,0.00,VWS V13.01,2013-01-28 15:53:00,
2013-01-28 10:58:00,77.9,63.9,30.32,ENE,77,3.2,6.5,62,0.00,,---,0.00,VWS V13.01,2013-01-28 15:58:00,
2013-01-28 11:03:00,78.0,63.6,30.32,ENE,69,4.6,5.4,61,0.00,,---,0.00,VWS V13.01,2013-01-28 16:03:00,
2013-01-28 11:08:00,77.4,63.2,30.32,East,84,7.6,7.7,62,0.00,,---,0.00,VWS V13.01,2013-01-28 16:08:00,
2013-01-28 11:13:00,77.9,63.5,30.32,NE,52,5.9,7.8,61,0.00,,---,0.00,VWS V13.01,2013-01-28 16:13:00,
2013-01-28 11:18:00,78.1,63.9,30.32,ESE,114,4.0,9.3,62,0.00,,---,0.00,VWS V13.01,2013-01-28 16:18:00,
2013-01-28 11:23:00,78.1,63.5,30.32,NE,34,8.9,10.4,61,0.00,,---,0.00,VWS V13.01,2013-01-28 16:23:00,
2013-01-28 11:29:00,78.2,63.6,30.31,NE,42,6.9,7.5,61,0.00,,---,0.00,VWS V13.01,2013-01-28 16:29:00,
2013-01-28 11:34:00,78.2,64.2,30.31,East,97,3.5,3.5,62,0.00,,---,0.00,VWS V13.01,2013-01-28 16:34:00,
2013-01-28 11:39:00,78.5,63.5,30.31,North,10,3.5,3.5,60,0.00,,---,0.00,VWS V13.01,2013-01-28 16:39:00,
2013-01-28 11:44:00,78.7,63.4,30.31,East,90,5.7,5.8,60,0.00,,---,0.00,VWS V13.01,2013-01-28 16:44:00,
2013-01-28 11:49:00,78.2,63.8,30.31,NE,45,3.8,8.6,61,0.00,,---,0.00,VWS V13.01,2013-01-28 16:49:00,
2013-01-28 11:54:00,78.1,63.3,30.31,ENE,60,3.5,9.3,60,0.00,,---,0.00,VWS V13.01,2013-01-28 16:54:00,
2013-01-28 11:59:00,78.5,63.6,30.31,NE,44,5.9,5.9,60,0.00,,---,0.00,VWS V13.01,2013-01-28 16:59:00,
2013-01-28 12:04:00,78.3,62.9,30.31,NE,55,3.1,5.9,59,0.00,,---,0.00,VWS V13.01,2013-01-28 17:04:00,
2013-01-28 12:09:00,78.1,62.9,30.31,NNE,20,2.7,10.6,60,0.00,,---,0.00,VWS V13.01,2013-01-28 17:09:00,
2013-01-28 12:14:00,78.4,62.7,30.31,NE,52,4.9,8.0,58,0.00,,---,0.00,VWS V13.01,2013-01-28 17:14:00,
2013-01-28 12:19:00,78.1,62.3,30.30,ENE,58,8.3,12.3,58,0.00,,---,0.00,VWS V13.01,2013-01-28 17:19:00,
2013-01-28 12:24:00,78.1,63.8,30.30,NE,41,3.0,4.8,61,0.00,,---,0.00,VWS V13.01,2013-01-28 17:24:00,
2013-01-28 12:29:00,77.9,63.0,30.29,NE,48,7.9,7.9,60,0.00,,---,0.00,VWS V13.01,2013-01-28 17:29:00,
2013-01-28 12:34:00,78.3,63.4,30.29,East,79,5.5,8.5,60,0.00,,---,0.00,VWS V13.01,2013-01-28 17:34:00,
2013-01-28 12:39:00,78.4,63.1,30.29,East,79,4.8,8.3,59,0.00,,---,0.00,VWS V13.01,2013-01-28 17:39:00,
2013-01-28 12:44:00,78.3,63.0,30.28,ENE,62,7.3,11.1,60,0.00,,---,0.00,VWS V13.01,2013-01-28 17:44:00,
2013-01-28 12:49:00,78.3,63.9,30.28,NE,45,7.1,7.1,61,0.00,,---,0.00,VWS V13.01,2013-01-28 17:49:00,
2013-01-28 12:54:00,78.7,63.0,30.28,ENE,58,5.7,7.5,59,0.00,,---,0.00,VWS V13.01,2013-01-28 17:54:00,
2013-01-28 12:59:00,79.2,63.7,30.28,East,94,7.4,9.0,59,0.00,,---,0.00,VWS V13.01,2013-01-28 17:59:00,
2013-01-28 13:04:00,79.4,63.5,30.28,ENE,70,2.5,6.2,58,0.00,,---,0.00,VWS V13.01,2013-01-28 18:04:00,
2013-01-28 13:09:00,78.9,62.7,30.27,East,86,10.2,14.7,58,0.00,,---,0.00,VWS V13.01,2013-01-28 18:09:00,
2013-01-28 13:15:00,78.8,63.7,30.27,NE,35,7.9,15.0,60,0.00,,---,0.00,VWS V13.01,2013-01-28 18:15:00,
2013-01-28 13:21:00,78.7,64.3,30.26,NE,49,4.2,13.3,61,0.00,,---,0.00,VWS V13.01,2013-01-28 18:21:00,
2013-01-28 13:26:00,78.4,63.9,30.26,SSE,152,8.0,9.7,61,0.00,,---,0.00,VWS V13.01,2013-01-28 18:26:00,
2013-01-28 13:31:00,78.9,64.1,30.26,East,79,4.3,5.0,60,0.00,,---,0.00,VWS V13.01,2013-01-28 18:31:00,
2013-01-28 13:36:00,79.1,63.6,30.26,SE,132,5.6,9.4,59,0.00,,---,0.00,VWS V13.01,2013-01-28 18:36:00,
2013-01-28 13:41:00,79.4,64.2,30.26,East,87,6.6,9.8,60,0.00,,---,0.00,VWS V13.01,2013-01-28 18:41:00,
2013-01-28 13:46:00,79.1,63.7,30.26,East,93,8.5,11.7,59,0.00,,---,0.00,VWS V13.01,2013-01-28 18:46:00,
2013-01-28 13:51:00,78.4,62.5,30.26,East,84,11.6,14.6,58,0.00,,---,0.00,VWS V13.01,2013-01-28 18:51:00,
2013-01-28 13:56:00,78.5,64.1,30.26,NNE,18,4.1,7.9,61,0.00,,---,0.00,VWS V13.01,2013-01-28 18:56:00,
2013-01-28 14:01:00,78.4,65.0,30.25,ENE,73,4.5,4.5,63,0.00,,---,0.00,VWS V13.01,2013-01-28 19:01:00,
2013-01-28 14:06:00,78.4,64.7,30.25,East,86,5.0,8.3,63,0.00,,---,0.00,VWS V13.01,2013-01-28 19:06:00,
2013-01-28 14:11:00,78.3,64.1,30.24,NNE,30,6.8,12.9,62,0.00,,---,0.00,VWS V13.01,2013-01-28 19:11:00,
2013-01-28 14:16:00,78.1,64.0,30.24,ESE,104,5.3,9.7,62,0.00,,---,0.00,VWS V13.01,2013-01-28 19:16:00,
2013-01-28 14:21:00,78.4,64.7,30.24,ENE,70,3.6,6.3,63,0.00,,---,0.00,VWS V13.01,2013-01-28 19:21:00,
2013-01-28 14:26:00,79.0,65.0,30.24,East,89,0.9,5.6,62,0.00,,---,0.00,VWS V13.01,2013-01-28 19:26:00,
2013-01-28 14:31:00,79.3,64.0,30.24,SE,124,9.4,10.2,60,0.00,,---,0.00,VWS V13.01,2013-01-28 19:31:00,
2013-01-28 14:36:00,79.1,65.0,30.24,East,87,5.7,6.6,62,0.00,,---,0.00,VWS V13.01,2013-01-28 19:36:00,
2013-01-28 14:41:00,78.9,64.5,30.24,NE,52,4.9,10.4,61,0.00,,---,0.00,VWS V13.01,2013-01-28 19:41:00,
2013-01-28 14:46:00,78.9,63.6,30.24,NE,55,3.9,9.4,59,0.00,,---,0.00,VWS V13.01,2013-01-28 19:46:00,
2013-01-28 14:51:00,79.1,63.9,30.23,NE,46,4.7,5.5,60,0.00,,---,0.00,VWS V13.01,2013-01-28 19:51:00,
2013-01-28 14:57:00,79.1,64.3,30.23,NE,41,6.5,9.6,61,0.00,,---,0.00,VWS V13.01,2013-01-28 19:57:00,
2013-01-28 15:02:00,78.8,64.0,30.23,NE,45,1.4,2.7,60,0.00,,---,0.00,VWS V13.01,2013-01-28 20:02:00,
2013-01-28 15:07:00,78.7,64.2,30.23,SE,136,8.5,9.8,61,0.00,,---,0.00,VWS V13.01,2013-01-28 20:07:00,
2013-01-28 15:12:00,78.1,63.7,30.23,NE,38,6.5,6.6,61,0.00,,---,0.00,VWS V13.01,2013-01-28 20:12:00,
2013-01-28 15:17:00,78.1,64.1,30.23,NE,37,8.4,8.8,62,0.00,,---,0.00,VWS V13.01,2013-01-28 20:17:00,
2013-01-28 15:22:00,78.4,64.1,30.23,NE,49,2.8,4.7,62,0.00,,---,0.00,VWS V13.01,2013-01-28 20:22:00,
2013-01-28 15:27:00,78.2,64.1,30.23,ESE,122,4.5,5.7,62,0.00,,---,0.00,VWS V13.01,2013-01-28 20:27:00,
2013-01-28 15:32:00,78.2,63.9,30.23,ENE,68,4.3,6.1,62,0.00,,---,0.00,VWS V13.01,2013-01-28 20:32:00,
2013-01-28 15:37:00,78.0,63.4,30.23,East,87,2.4,3.5,61,0.00,,---,0.00,VWS V13.01,2013-01-28 20:37:00,
2013-01-28 15:42:00,78.2,63.4,30.23,ESE,111,6.5,8.6,60,0.00,,---,0.00,VWS V13.01,2013-01-28 20:42:00,
2013-01-28 15:47:00,78.7,63.9,30.23,NNE,21,2.7,4.4,60,0.00,,---,0.00,VWS V13.01,2013-01-28 20:47:00,
2013-01-28 15:52:00,78.7,63.8,30.23,ENE,69,4.8,6.4,60,0.00,,---,0.00,VWS V13.01,2013-01-28 20:52:00,
2013-01-28 15:57:00,78.5,63.5,30.23,East,87,9.4,10.3,60,0.00,,---,0.00,VWS V13.01,2013-01-28 20:57:00,
2013-01-28 16:02:00,78.0,63.5,30.23,ENE,76,5.5,6.6,61,0.00,,---,0.00,VWS V13.01,2013-01-28 21:02:00,
2013-01-28 16:07:00,77.7,63.8,30.23,ENE,68,6.3,8.3,62,0.00,,---,0.00,VWS V13.01,2013-01-28 21:07:00,
2013-01-28 16:12:00,77.7,64.0,30.23,NE,34,3.0,7.1,63,0.00,,---,0.00,VWS V13.01,2013-01-28 21:12:00,
2013-01-28 16:17:00,77.9,64.0,30.23,ESE,110,3.3,3.9,62,0.00,,---,0.00,VWS V13.01,2013-01-28 21:17:00,
2013-01-28 16:22:00,77.9,63.6,30.23,East,94,3.2,10.4,61,0.00,,---,0.00,VWS V13.01,2013-01-28 21:22:00,
2013-01-28 16:27:00,78.0,63.4,30.23,NE,45,3.0,5.7,61,0.00,,---,0.00,VWS V13.01,2013-01-28 21:27:00,
2013-01-28 16:32:00,77.8,63.4,30.23,ESE,104,2.3,6.4,61,0.00,,---,0.00,VWS V13.01,2013-01-28 21:32:00,
2013-01-28 16:38:00,77.5,62.4,30.23,ENE,76,4.1,7.8,60,0.00,,---,0.00,VWS V13.01,2013-01-28 21:38:00,
2013-01-28 16:43:00,77.4,62.7,30.23,ENE,77,6.3,6.3,60,0.00,,---,0.00,VWS V13.01,2013-01-28 21:43:00,
2013-01-28 16:48:00,77.4,63.2,30.23,ENE,70,3.2,3.3,62,0.00,,---,0.00,VWS V13.01,2013-01-28 21:48:00,
2013-01-28 16:53:00,77.1,63.5,30.23,NE,45,2.1,3.9,63,0.00,,---,0.00,VWS V13.01,2013-01-28 21:53:00,
2013-01-28 16:58:00,77.1,63.7,30.23,East,94,2.7,2.7,63,0.00,,---,0.00,VWS V13.01,2013-01-28 21:58:00,
2013-01-28 17:03:00,77.3,63.8,30.23,East,79,3.3,4.3,63,0.00,,---,0.00,VWS V13.01,2013-01-28 22:03:00,
2013-01-28 17:08:00,77.2,63.2,30.23,East,79,3.5,6.2,62,0.00,,---,0.00,VWS V13.01,2013-01-28 22:08:00,
2013-01-28 17:13:00,77.0,63.5,30.23,NE,52,1.2,2.3,63,0.00,,---,0.00,VWS V13.01,2013-01-28 22:13:00,
2013-01-28 17:18:00,76.9,64.1,30.23,NE,52,2.9,4.1,65,0.00,,---,0.00,VWS V13.01,2013-01-28 22:18:00,
2013-01-28 17:23:00,76.9,64.1,30.23,ENE,58,5.0,6.0,65,0.00,,---,0.00,VWS V13.01,2013-01-28 22:23:00,
2013-01-28 17:28:00,76.6,64.2,30.23,ENE,65,2.5,5.0,66,0.00,,---,0.00,VWS V13.01,2013-01-28 22:28:00,
2013-01-28 17:33:00,76.4,64.0,30.24,NE,52,2.3,5.0,66,0.00,,---,0.00,VWS V13.01,2013-01-28 22:33:00,
2013-01-28 17:38:00,76.2,63.8,30.24,NE,38,2.7,6.2,65,0.00,,---,0.00,VWS V13.01,2013-01-28 22:38:00,
2013-01-28 17:43:00,75.9,64.0,30.24,ENE,62,3.1,6.1,66,0.00,,---,0.00,VWS V13.01,2013-01-28 22:43:00,
2013-01-28 17:48:00,75.7,63.8,30.24,NE,38,3.9,5.1,67,0.00,,---,0.00,VWS V13.01,2013-01-28 22:48:00,
2013-01-28 17:53:00,75.6,64.1,30.24,East,86,1.8,5.3,67,0.00,,---,0.00,VWS V13.01,2013-01-28 22:53:00,
2013-01-28 17:58:00,75.3,64.0,30.25,North,11,3.0,8.0,68,0.00,,---,0.00,VWS V13.01,2013-01-28 22:58:00,
2013-01-28 18:03:00,75.3,64.3,30.25,ENE,75,2.1,9.1,69,0.00,,---,0.00,VWS V13.01,2013-01-28 23:03:00,
2013-01-28 18:08:00,75.1,64.2,30.24,ESE,120,0.6,5.8,69,0.00,,---,0.00,VWS V13.01,2013-01-28 23:08:00,
2013-01-28 18:13:00,75.0,64.2,30.25,ENE,66,4.1,5.9,69,0.00,,---,0.00,VWS V13.01,2013-01-28 23:13:00,
2013-01-28 18:18:00,75.0,64.3,30.25,NNE,22,4.5,6.9,69,0.00,,---,0.00,VWS V13.01,2013-01-28 23:18:00,
2013-01-28 18:23:00,74.9,64.4,30.25,East,90,4.8,4.8,70,0.00,,---,0.00,VWS V13.01,2013-01-28 23:23:00,
2013-01-28 18:28:00,74.9,64.5,30.25,ENE,68,3.1,5.2,70,0.00,,---,0.00,VWS V13.01,2013-01-28 23:28:00,
2013-01-28 18:33:00,75.0,64.7,30.25,ENE,60,7.0,8.8,70,0.00,,---,0.00,VWS V13.01,2013-01-28 23:33:00,
2013-01-28 18:39:00,75.1,64.8,30.25,NNE,22,4.2,4.2,70,0.00,,---,0.00,VWS V13.01,2013-01-28 23:39:00,
2013-01-28 18:44:00,75.0,64.6,30.25,East,79,3.3,6.2,70,0.00,,---,0.00,VWS V13.01,2013-01-28 23:44:00,
2013-01-28 18:49:00,75.1,64.9,30.25,NE,49,2.6,5.0,71,0.00,,---,0.00,VWS V13.01,2013-01-28 23:49:00,
2013-01-28 18:54:00,75.0,65.0,30.25,ENE,72,4.8,5.5,71,0.00,,---,0.00,VWS V13.01,2013-01-28 23:54:00,
2013-01-28 18:59:00,74.8,64.7,30.25,ENE,75,4.2,6.0,71,0.00,,---,0.00,VWS V13.01,2013-01-28 23:59:00,
2013-01-28 19:04:00,74.8,65.0,30.25,NE,56,6.9,7.5,72,0.00,,---,0.00,VWS V13.01,2013-01-29 00:04:00,
2013-01-28 19:09:00,74.9,65.0,30.25,East,93,2.1,5.6,71,0.00,,---,0.00,VWS V13.01,2013-01-29 00:09:00,
2013-01-28 19:14:00,74.7,64.9,30.25,East,84,3.5,3.5,72,0.00,,---,0.00,VWS V13.01,2013-01-29 00:14:00,
2013-01-28 19:19:00,74.8,65.2,30.25,ENE,69,1.1,2.5,72,0.00,,---,0.00,VWS V13.01,2013-01-29 00:19:00,
2013-01-28 19:24:00,74.9,65.2,30.25,ENE,65,0.0,0.0,72,0.00,,---,0.00,VWS V13.01,2013-01-29 00:24:00,
2013-01-28 19:29:00,74.9,65.2,30.25,ENE,76,1.4,2.7,72,0.00,,---,0.00,VWS V13.01,2013-01-29 00:29:00,
2013-01-28 19:34:00,74.9,65.3,30.25,ENE,75,2.4,2.6,72,0.00,,---,0.00,VWS V13.01,2013-01-29 00:34:00,
2013-01-28 19:39:00,74.8,65.7,30.25,ENE,72,3.7,5.7,73,0.00,,---,0.00,VWS V13.01,2013-01-29 00:39:00,
2013-01-28 19:44:00,75.1,65.9,30.25,NE,56,2.2,6.8,73,0.00,,---,0.00,VWS V13.01,2013-01-29 00:44:00,
2013-01-28 19:49:00,74.8,65.6,30.25,NE,53,4.1,4.3,73,0.00,,---,0.00,VWS V13.01,2013-01-29 00:49:00,
2013-01-28 19:54:00,74.8,65.7,30.25,NE,48,5.7,7.6,73,0.00,,---,0.00,VWS V13.01,2013-01-29 00:54:00,
2013-01-28 19:59:00,74.7,65.9,30.25,NE,51,7.0,8.3,74,0.00,,---,0.00,VWS V13.01,2013-01-29 00:59:00,
2013-01-28 20:04:00,74.7,65.8,30.25,NE,35,5.1,10.3,74,0.00,,---,0.00,VWS V13.01,2013-01-29 01:04:00,
2013-01-28 20:09:00,74.7,65.7,30.26,ENE,60,1.9,5.0,74,0.00,,---,0.00,VWS V13.01,2013-01-29 01:09:00,
2013-01-28 20:14:00,74.6,65.6,30.25,ENE,68,4.9,9.8,74,0.00,,---,0.00,VWS V13.01,2013-01-29 01:14:00,
2013-01-28 20:19:00,75.0,65.9,30.26,NE,52,2.2,4.5,73,0.00,,---,0.00,VWS V13.01,2013-01-29 01:19:00,
2013-01-28 20:24:00,74.6,65.6,30.26,NE,37,1.3,1.7,74,0.00,,---,0.00,VWS V13.01,2013-01-29 01:24:00,
2013-01-28 20:29:00,74.6,65.8,30.26,ENE,70,5.8,8.1,74,0.00,,---,0.00,VWS V13.01,2013-01-29 01:29:00,
2013-01-28 20:34:00,74.6,65.8,30.26,ENE,65,2.5,4.0,74,0.00,,---,0.00,VWS V13.01,2013-01-29 01:34:00,
2013-01-28 20:39:00,74.6,65.9,30.26,NE,55,3.4,3.4,74,0.00,,---,0.00,VWS V13.01,2013-01-29 01:39:00,
2013-01-28 20:44:00,74.7,66.1,30.26,East,91,3.5,7.0,74,0.00,,---,0.00,VWS V13.01,2013-01-29 01:44:00,
2013-01-28 20:49:00,74.7,65.9,30.26,NE,42,2.9,4.0,74,0.00,,---,0.00,VWS V13.01,2013-01-29 01:49:00,
2013-01-28 20:54:00,74.8,66.0,30.26,ENE,60,3.7,6.2,74,0.00,,---,0.00,VWS V13.01,2013-01-29 01:54:00,
2013-01-28 20:59:00,74.6,65.7,30.26,ENE,75,4.4,7.1,74,0.00,,---,0.00,VWS V13.01,2013-01-29 01:59:00,
2013-01-28 21:04:00,74.5,65.4,30.26,NE,53,6.2,10.9,73,0.00,,---,0.00,VWS V13.01,2013-01-29 02:04:00,
2013-01-28 21:09:00,74.8,65.7,30.26,NE,48,1.7,4.2,73,0.00,,---,0.00,VWS V13.01,2013-01-29 02:09:00,
2013-01-28 21:14:00,74.6,65.6,30.26,NE,53,3.2,4.4,74,0.00,,---,0.00,VWS V13.01,2013-01-29 02:14:00,
2013-01-28 21:20:00,74.4,65.5,30.26,NE,39,4.5,5.3,74,0.00,,---,0.00,VWS V13.01,2013-01-29 02:20:00,
2013-01-28 21:25:00,74.6,65.7,30.26,ENE,70,1.3,2.7,74,0.00,,---,0.00,VWS V13.01,2013-01-29 02:25:00,
2013-01-28 21:30:00,74.3,65.3,30.26,NE,37,7.7,7.7,74,0.00,,---,0.00,VWS V13.01,2013-01-29 02:30:00,
2013-01-28 21:35:00,74.5,65.4,30.26,East,91,2.4,4.1,73,0.00,,---,0.00,VWS V13.01,2013-01-29 02:35:00,
2013-01-28 21:40:00,74.4,65.6,30.26,NE,39,8.3,10.6,74,0.00,,---,0.00,VWS V13.01,2013-01-29 02:40:00,
2013-01-28 21:45:00,74.6,65.9,30.26,East,89,3.0,3.8,74,0.00,,---,0.00,VWS V13.01,2013-01-29 02:45:00,
2013-01-28 21:50:00,74.2,65.3,30.26,NNE,30,4.1,5.0,74,0.00,,---,0.00,VWS V13.01,2013-01-29 02:50:00,
2013-01-28 21:55:00,74.6,65.5,30.26,NE,49,4.2,6.3,73,0.00,,---,0.00,VWS V13.01,2013-01-29 02:55:00,
2013-01-28 22:00:00,74.3,65.7,30.26,NE,53,5.8,7.6,74,0.00,,---,0.00,VWS V13.01,2013-01-29 03:00:00,
2013-01-28 22:05:00,74.4,65.7,30.26,NE,56,1.4,1.4,74,0.00,,---,0.00,VWS V13.01,2013-01-29 03:05:00,
2013-01-28 22:10:00,74.3,66.0,30.26,ENE,60,3.0,3.5,75,0.00,,---,0.00,VWS V13.01,2013-01-29 03:10:00,
2013-01-28 22:15:00,74.4,66.1,30.26,ESE,103,4.5,6.8,75,0.00,,---,0.00,VWS V13.01,2013-01-29 03:15:00,
2013-01-28 22:20:00,74.3,66.1,30.26,ENE,77,4.8,6.0,76,0.00,,---,0.00,VWS V13.01,2013-01-29 03:20:00,
2013-01-28 22:25:00,74.4,66.2,30.26,ENE,72,2.5,5.7,76,0.00,,---,0.00,VWS V13.01,2013-01-29 03:25:00,
2013-01-28 22:30:00,74.1,66.1,30.26,East,80,5.0,5.1,76,0.00,,---,0.00,VWS V13.01,2013-01-29 03:30:00,
2013-01-28 22:35:00,74.3,66.2,30.26,ENE,68,3.3,3.4,76,0.00,,---,0.00,VWS V13.01,2013-01-29 03:35:00,
2013-01-28 22:40:00,74.1,66.2,30.26,ENE,68,1.3,3.5,76,0.00,,---,0.00,VWS V13.01,2013-01-29 03:40:00,
2013-01-28 22:45:00,74.2,66.4,30.26,ENE,70,1.9,3.7,77,0.00,,---,0.00,VWS V13.01,2013-01-29 03:45:00,
2013-01-28 22:50:00,74.0,66.4,30.26,East,91,4.3,4.5,77,0.00,,---,0.00,VWS V13.01,2013-01-29 03:50:00,
2013-01-28 22:55:00,74.1,66.6,30.26,East,87,3.7,5.1,78,0.00,,---,0.00,VWS V13.01,2013-01-29 03:55:00,
2013-01-28 23:00:00,74.2,66.7,30.26,ENE,72,3.5,6.3,77,0.00,,---,0.00,VWS V13.01,2013-01-29 04:00:00,
2013-01-28 23:05:00,74.1,66.6,30.26,ENE,72,3.0,4.3,77,0.00,,---,0.00,VWS V13.01,2013-01-29 04:05:00,
2013-01-28 23:10:00,74.2,66.9,30.26,NE,51,6.0,6.5,78,0.00,,---,0.00,VWS V13.01,2013-01-29 04:10:00,
2013-01-28 23:15:00,74.2,66.9,30.26,NE,44,3.5,3.5,78,0.00,,---,0.00,VWS V13.01,2013-01-29 04:15:00,
2013-01-28 23:20:00,74.2,67.0,30.26,ENE,58,3.5,7.8,78,0.00,,---,0.00,VWS V13.01,2013-01-29 04:20:00,
2013-01-28 23:25:00,74.2,67.0,30.25,NE,49,2.1,2.1,78,0.00,,---,0.00,VWS V13.01,2013-01-29 04:25:00,
2013-01-28 23:30:00,74.3,67.3,30.25,ENE,60,4.5,6.2,79,0.00,,---,0.00,VWS V13.01,2013-01-29 04:30:00,
2013-01-28 23:36:00,74.2,67.1,30.25,NE,52,2.5,3.6,79,0.00,,---,0.00,VWS V13.01,2013-01-29 04:36:00,
2013-01-28 23:41:00,74.1,67.0,30.25,East,79,3.7,6.1,78,0.00,,---,0.00,VWS V13.01,2013-01-29 04:41:00,
2013-01-28 23:46:00,74.0,66.8,30.25,NE,45,4.4,5.2,78,0.00,,---,0.00,VWS V13.01,2013-01-29 04:46:00,
2013-01-28 23:51:00,74.1,67.0,30.25,ENE,66,3.0,3.0,78,0.00,,---,0.00,VWS V13.01,2013-01-29 04:51:00,
2013-01-28 23:56:00,74.1,66.9,30.25,ENE,59,3.9,6.3,78,0.00,,---,0.00,VWS V13.01,2013-01-29 04:56:00,